Terminal Aerodrome Forecast
Issued by NWS

Home | Current Version | Previous Version | Text Only | Print | Product List | Glossary On
Versions: 1 2 3 4 5 6 7 8 9 10 11 12 13 14
000
FTUS42 KFFC 281735
TAFRYY
TAF
KRYY 281735Z 2818/2918 30006KT P6SM SKC
     FM282100 26004KT P6SM SKC
     FM290000 00000KT P6SM SKC
     FM291600 19004KT P6SM SCT250=

USA.gov is the U.S. government's official web portal to all federal, state and local government web resources and services.